sensor_id;sensor_type;location;lat;lon;timestamp;temperature;humidity
21085;DHT22;72320;50.082;20.000;2024-01-16T00:00:58;12.80;46.90
21085;DHT22;72320;50.082;20.000;2024-01-16T00:03:24;12.60;47.20
21085;DHT22;72320;50.082;20.000;2024-01-16T00:05:50;12.40;47.40
21085;DHT22;72320;50.082;20.000;2024-01-16T00:08:16;12.20;47.50
21085;DHT22;72320;50.082;20.000;2024-01-16T00:10:42;11.90;48.20
21085;DHT22;72320;50.082;20.000;2024-01-16T00:13:08;12.10;48.10
21085;DHT22;72320;50.082;20.000;2024-01-16T00:15:34;12.00;48.30
21085;DHT22;72320;50.082;20.000;2024-01-16T00:18:00;12.10;48.40
21085;DHT22;72320;50.082;20.000;2024-01-16T00:20:26;12.20;48.30
21085;DHT22;72320;50.082;20.000;2024-01-16T00:22:52;12.30;48.00
21085;DHT22;72320;50.082;20.000;2024-01-16T00:25:19;12.20;48.10
21085;DHT22;72320;50.082;20.000;2024-01-16T00:27:45;11.90;48.80
21085;DHT22;72320;50.082;20.000;2024-01-16T00:30:12;11.80;49.40
21085;DHT22;72320;50.082;20.000;2024-01-16T00:32:41;11.80;49.60
21085;DHT22;72320;50.082;20.000;2024-01-16T00:35:07;12.00;49.30
21085;DHT22;72320;50.082;20.000;2024-01-16T00:37:35;12.20;48.80
21085;DHT22;72320;50.082;20.000;2024-01-16T00:40:03;12.30;48.60
21085;DHT22;72320;50.082;20.000;2024-01-16T00:42:33;12.40;48.50
21085;DHT22;72320;50.082;20.000;2024-01-16T00:44:59;12.30;48.80
21085;DHT22;72320;50.082;20.000;2024-01-16T00:47:25;12.40;48.80
21085;DHT22;72320;50.082;20.000;2024-01-16T00:49:51;12.40;48.70
21085;DHT22;72320;50.082;20.000;2024-01-16T00:52:18;12.20;49.00
21085;DHT22;72320;50.082;20.000;2024-01-16T00:54:44;12.40;48.50
21085;DHT22;72320;50.082;20.000;2024-01-16T00:57:11;12.50;48.70
21085;DHT22;72320;50.082;20.000;2024-01-16T00:59:37;12.50;48.30
21085;DHT22;72320;50.082;20.000;2024-01-16T01:02:03;12.70;48.20
21085;DHT22;72320;50.082;20.000;2024-01-16T01:04:32;12.40;48.40
21085;DHT22;72320;50.082;20.000;2024-01-16T01:06:59;12.70;48.20
21085;DHT22;72320;50.082;20.000;2024-01-16T01:09:25;12.80;47.80
21085;DHT22;72320;50.082;20.000;2024-01-16T01:11:51;12.80;47.80
21085;DHT22;72320;50.082;20.000;2024-01-16T01:14:17;12.70;47.70
21085;DHT22;72320;50.082;20.000;2024-01-16T01:16:43;12.90;47.90
21085;DHT22;72320;50.082;20.000;2024-01-16T01:19:09;13.00;47.20
21085;DHT22;72320;50.082;20.000;2024-01-16T01:21:35;13.00;47.00
21085;DHT22;72320;50.082;20.000;2024-01-16T01:24:01;12.80;47.30
21085;DHT22;72320;50.082;20.000;2024-01-16T01:26:27;12.60;47.70
21085;DHT22;72320;50.082;20.000;2024-01-16T01:28:53;12.80;47.40
21085;DHT22;72320;50.082;20.000;2024-01-16T01:31:20;12.80;47.20
21085;DHT22;72320;50.082;20.000;2024-01-16T01:33:46;12.90;47.30
21085;DHT22;72320;50.082;20.000;2024-01-16T01:36:12;13.00;47.10
21085;DHT22;72320;50.082;20.000;2024-01-16T01:38:38;13.00;47.30
21085;DHT22;72320;50.082;20.000;2024-01-16T01:41:05;12.90;47.10
21085;DHT22;72320;50.082;20.000;2024-01-16T01:43:30;12.60;48.00
21085;DHT22;72320;50.082;20.000;2024-01-16T01:46:08;12.50;47.80
21085;DHT22;72320;50.082;20.000;2024-01-16T01:48:44;12.40;48.00
21085;DHT22;72320;50.082;20.000;2024-01-16T01:51:13;12.50;48.20
21085;DHT22;72320;50.082;20.000;2024-01-16T01:53:44;12.50;48.10
21085;DHT22;72320;50.082;20.000;2024-01-16T01:56:19;12.60;47.80
21085;DHT22;72320;50.082;20.000;2024-01-16T01:58:47;12.60;47.70
21085;DHT22;72320;50.082;20.000;2024-01-16T02:01:19;12.50;47.90
21085;DHT22;72320;50.082;20.000;2024-01-16T02:03:47;12.30;48.40
21085;DHT22;72320;50.082;20.000;2024-01-16T02:06:16;12.30;48.60
21085;DHT22;72320;50.082;20.000;2024-01-16T02:08:42;12.30;48.40
21085;DHT22;72320;50.082;20.000;2024-01-16T02:11:11;12.40;48.40
21085;DHT22;72320;50.082;20.000;2024-01-16T02:13:37;12.40;48.10
21085;DHT22;72320;50.082;20.000;2024-01-16T02:16:03;12.30;48.10
21085;DHT22;72320;50.082;20.000;2024-01-16T02:18:31;12.20;48.20
21085;DHT22;72320;50.082;20.000;2024-01-16T02:20:58;12.30;48.20
21085;DHT22;72320;50.082;20.000;2024-01-16T02:23:27;12.60;47.60
21085;DHT22;72320;50.082;20.000;2024-01-16T02:25:54;12.70;47.30
21085;DHT22;72320;50.082;20.000;2024-01-16T02:28:20;12.80;47.20
21085;DHT22;72320;50.082;20.000;2024-01-16T02:30:46;12.60;47.10
21085;DHT22;72320;50.082;20.000;2024-01-16T02:33:12;12.70;46.90
21085;DHT22;72320;50.082;20.000;2024-01-16T02:35:38;12.50;47.20
21085;DHT22;72320;50.082;20.000;2024-01-16T02:38:04;12.40;47.10
21085;DHT22;72320;50.082;20.000;2024-01-16T02:40:30;12.40;47.10
21085;DHT22;72320;50.082;20.000;2024-01-16T02:42:56;12.50;46.80
21085;DHT22;72320;50.082;20.000;2024-01-16T02:45:22;12.20;46.90
21085;DHT22;72320;50.082;20.000;2024-01-16T02:47:48;12.20;47.30
21085;DHT22;72320;50.082;20.000;2024-01-16T02:50:14;12.40;47.40
21085;DHT22;72320;50.082;20.000;2024-01-16T02:52:40;12.50;46.40
21085;DHT22;72320;50.082;20.000;2024-01-16T02:55:07;12.60;46.20
21085;DHT22;72320;50.082;20.000;2024-01-16T02:57:33;12.60;46.20
21085;DHT22;72320;50.082;20.000;2024-01-16T02:59:59;12.60;46.10
21085;DHT22;72320;50.082;20.000;2024-01-16T03:02:26;12.80;45.70
21085;DHT22;72320;50.082;20.000;2024-01-16T03:04:52;12.80;45.70
21085;DHT22;72320;50.082;20.000;2024-01-16T03:07:18;12.70;45.60
21085;DHT22;72320;50.082;20.000;2024-01-16T03:09:44;12.80;45.60
21085;DHT22;72320;50.082;20.000;2024-01-16T03:12:10;12.80;45.40
21085;DHT22;72320;50.082;20.000;2024-01-16T03:14:36;12.90;45.00
21085;DHT22;72320;50.082;20.000;2024-01-16T03:17:04;13.10;44.80
21085;DHT22;72320;50.082;20.000;2024-01-16T03:19:30;13.20;44.70
21085;DHT22;72320;50.082;20.000;2024-01-16T03:21:56;13.30;44.30
21085;DHT22;72320;50.082;20.000;2024-01-16T03:24:22;13.20;44.20
21085;DHT22;72320;50.082;20.000;2024-01-16T03:26:48;13.20;44.30
21085;DHT22;72320;50.082;20.000;2024-01-16T03:29:14;13.10;44.10
21085;DHT22;72320;50.082;20.000;2024-01-16T03:31:40;13.10;44.30
21085;DHT22;72320;50.082;20.000;2024-01-16T03:34:06;13.20;44.20
21085;DHT22;72320;50.082;20.000;2024-01-16T03:36:35;13.30;43.80
21085;DHT22;72320;50.082;20.000;2024-01-16T03:39:02;13.10;43.90
21085;DHT22;72320;50.082;20.000;2024-01-16T03:41:28;12.90;44.30
21085;DHT22;72320;50.082;20.000;2024-01-16T03:43:54;12.80;44.30
21085;DHT22;72320;50.082;20.000;2024-01-16T03:46:22;12.60;44.60
21085;DHT22;72320;50.082;20.000;2024-01-16T03:48:48;12.40;44.90
21085;DHT22;72320;50.082;20.000;2024-01-16T03:51:14;12.20;45.20
21085;DHT22;72320;50.082;20.000;2024-01-16T03:53:43;12.20;45.20
21085;DHT22;72320;50.082;20.000;2024-01-16T03:56:09;12.20;45.40
21085;DHT22;72320;50.082;20.000;2024-01-16T03:58:35;12.40;45.10
21085;DHT22;72320;50.082;20.000;2024-01-16T04:01:01;12.30;45.60
21085;DHT22;72320;50.082;20.000;2024-01-16T04:03:27;12.20;46.00
21085;DHT22;72320;50.082;20.000;2024-01-16T04:05:54;12.30;45.80
21085;DHT22;72320;50.082;20.000;2024-01-16T04:08:22;12.40;45.80
21085;DHT22;72320;50.082;20.000;2024-01-16T04:10:49;12.10;48.00
21085;DHT22;72320;50.082;20.000;2024-01-16T04:13:15;11.90;49.90
21085;DHT22;72320;50.082;20.000;2024-01-16T04:15:41;11.90;49.90
21085;DHT22;72320;50.082;20.000;2024-01-16T04:18:07;12.00;49.50
21085;DHT22;72320;50.082;20.000;2024-01-16T04:20:33;12.10;49.70
21085;DHT22;72320;50.082;20.000;2024-01-16T04:22:59;11.90;50.20
21085;DHT22;72320;50.082;20.000;2024-01-16T04:25:26;11.80;50.10
21085;DHT22;72320;50.082;20.000;2024-01-16T04:27:52;11.80;50.10
21085;DHT22;72320;50.082;20.000;2024-01-16T04:30:18;11.90;50.00
21085;DHT22;72320;50.082;20.000;2024-01-16T04:32:47;12.00;50.40
21085;DHT22;72320;50.082;20.000;2024-01-16T04:35:13;12.00;49.90
21085;DHT22;72320;50.082;20.000;2024-01-16T04:37:40;11.90;50.60
21085;DHT22;72320;50.082;20.000;2024-01-16T04:40:06;12.00;50.60
21085;DHT22;72320;50.082;20.000;2024-01-16T04:42:32;12.10;50.40
21085;DHT22;72320;50.082;20.000;2024-01-16T04:45:00;12.10;50.70
21085;DHT22;72320;50.082;20.000;2024-01-16T04:47:26;12.10;50.80
21085;DHT22;72320;50.082;20.000;2024-01-16T04:49:52;12.10;50.60
21085;DHT22;72320;50.082;20.000;2024-01-16T04:52:18;12.00;50.20
21085;DHT22;72320;50.082;20.000;2024-01-16T04:54:46;12.00;50.60
21085;DHT22;72320;50.082;20.000;2024-01-16T04:57:12;11.80;50.90
21085;DHT22;72320;50.082;20.000;2024-01-16T04:59:39;11.80;50.90
21085;DHT22;72320;50.082;20.000;2024-01-16T05:02:07;11.70;50.90
21085;DHT22;72320;50.082;20.000;2024-01-16T05:04:36;11.70;50.60
21085;DHT22;72320;50.082;20.000;2024-01-16T05:07:03;11.70;50.30
21085;DHT22;72320;50.082;20.000;2024-01-16T05:09:30;11.90;49.80
21085;DHT22;72320;50.082;20.000;2024-01-16T05:11:56;11.90;49.40
21085;DHT22;72320;50.082;20.000;2024-01-16T05:14:22;11.70;49.20
21085;DHT22;72320;50.082;20.000;2024-01-16T05:16:51;11.50;49.40
21085;DHT22;72320;50.082;20.000;2024-01-16T05:19:18;11.50;49.40
21085;DHT22;72320;50.082;20.000;2024-01-16T05:21:44;11.70;49.60
21085;DHT22;72320;50.082;20.000;2024-01-16T05:24:11;11.60;49.50
21085;DHT22;72320;50.082;20.000;2024-01-16T05:26:36;11.80;49.30
21085;DHT22;72320;50.082;20.000;2024-01-16T05:29:02;11.90;49.60
21085;DHT22;72320;50.082;20.000;2024-01-16T05:31:28;11.90;49.30
21085;DHT22;72320;50.082;20.000;2024-01-16T05:33:54;12.10;49.30
21085;DHT22;72320;50.082;20.000;2024-01-16T05:36:20;12.10;49.70
21085;DHT22;72320;50.082;20.000;2024-01-16T05:38:46;12.40;49.20
21085;DHT22;72320;50.082;20.000;2024-01-16T05:41:13;12.70;48.40
21085;DHT22;72320;50.082;20.000;2024-01-16T05:43:39;12.70;47.80
21085;DHT22;72320;50.082;20.000;2024-01-16T05:46:05;13.00;47.30
21085;DHT22;72320;50.082;20.000;2024-01-16T05:48:31;13.10;47.00
21085;DHT22;72320;50.082;20.000;2024-01-16T05:50:57;13.20;46.80
21085;DHT22;72320;50.082;20.000;2024-01-16T05:53:24;13.40;46.30
21085;DHT22;72320;50.082;20.000;2024-01-16T05:55:50;13.50;45.90
21085;DHT22;72320;50.082;20.000;2024-01-16T05:58:16;13.70;46.10
21085;DHT22;72320;50.082;20.000;2024-01-16T06:00:42;13.90;44.90
21085;DHT22;72320;50.082;20.000;2024-01-16T06:03:08;14.00;44.10
21085;DHT22;72320;50.082;20.000;2024-01-16T06:05:37;14.10;43.50
21085;DHT22;72320;50.082;20.000;2024-01-16T06:08:03;14.10;43.90
21085;DHT22;72320;50.082;20.000;2024-01-16T06:10:30;14.20;42.90
21085;DHT22;72320;50.082;20.000;2024-01-16T06:12:56;14.20;42.40
21085;DHT22;72320;50.082;20.000;2024-01-16T06:15:22;14.10;42.40
21085;DHT22;72320;50.082;20.000;2024-01-16T06:17:48;13.80;42.30
21085;DHT22;72320;50.082;20.000;2024-01-16T06:20:14;13.80;42.60
21085;DHT22;72320;50.082;20.000;2024-01-16T06:22:40;13.80;42.60
21085;DHT22;72320;50.082;20.000;2024-01-16T06:25:07;13.80;43.00
21085;DHT22;72320;50.082;20.000;2024-01-16T06:27:33;13.90;42.70
21085;DHT22;72320;50.082;20.000;2024-01-16T06:29:59;14.00;42.90
21085;DHT22;72320;50.082;20.000;2024-01-16T06:32:24;14.10;44.90
21085;DHT22;72320;50.082;20.000;2024-01-16T06:34:51;14.10;43.90
21085;DHT22;72320;50.082;20.000;2024-01-16T06:37:16;14.20;43.90
21085;DHT22;72320;50.082;20.000;2024-01-16T06:39:43;14.10;44.00
21085;DHT22;72320;50.082;20.000;2024-01-16T06:42:08;14.10;44.60
21085;DHT22;72320;50.082;20.000;2024-01-16T06:44:34;14.10;44.40
21085;DHT22;72320;50.082;20.000;2024-01-16T06:47:00;14.10;44.00
21085;DHT22;72320;50.082;20.000;2024-01-16T06:49:26;14.10;44.10
21085;DHT22;72320;50.082;20.000;2024-01-16T06:51:52;14.00;44.40
21085;DHT22;72320;50.082;20.000;2024-01-16T06:54:18;14.20;44.60
21085;DHT22;72320;50.082;20.000;2024-01-16T06:56:45;14.20;43.70
21085;DHT22;72320;50.082;20.000;2024-01-16T06:59:14;14.40;43.90
21085;DHT22;72320;50.082;20.000;2024-01-16T07:01:41;14.40;43.80
21085;DHT22;72320;50.082;20.000;2024-01-16T07:04:07;14.40;43.70
21085;DHT22;72320;50.082;20.000;2024-01-16T07:06:33;14.50;43.10
21085;DHT22;72320;50.082;20.000;2024-01-16T07:08:59;14.30;43.40
21085;DHT22;72320;50.082;20.000;2024-01-16T07:11:25;14.20;43.90
21085;DHT22;72320;50.082;20.000;2024-01-16T07:13:51;14.30;43.50
21085;DHT22;72320;50.082;20.000;2024-01-16T07:16:17;14.30;43.60
21085;DHT22;72320;50.082;20.000;2024-01-16T07:18:43;14.30;43.20
21085;DHT22;72320;50.082;20.000;2024-01-16T07:21:18;14.40;43.70
21085;DHT22;72320;50.082;20.000;2024-01-16T07:23:46;14.50;44.20
21085;DHT22;72320;50.082;20.000;2024-01-16T07:26:13;14.50;43.80
21085;DHT22;72320;50.082;20.000;2024-01-16T07:28:39;14.60;44.00
21085;DHT22;72320;50.082;20.000;2024-01-16T07:31:05;14.70;45.20
21085;DHT22;72320;50.082;20.000;2024-01-16T07:33:31;14.80;44.40
21085;DHT22;72320;50.082;20.000;2024-01-16T07:35:58;14.90;43.90
21085;DHT22;72320;50.082;20.000;2024-01-16T07:38:24;15.00;43.60
21085;DHT22;72320;50.082;20.000;2024-01-16T07:40:50;14.90;43.70
21085;DHT22;72320;50.082;20.000;2024-01-16T07:43:16;14.90;43.70
21085;DHT22;72320;50.082;20.000;2024-01-16T07:45:42;14.90;44.00
21085;DHT22;72320;50.082;20.000;2024-01-16T07:48:08;14.80;43.90
21085;DHT22;72320;50.082;20.000;2024-01-16T07:50:34;14.80;44.00
21085;DHT22;72320;50.082;20.000;2024-01-16T07:53:01;14.80;44.20
21085;DHT22;72320;50.082;20.000;2024-01-16T07:55:27;14.80;44.40
21085;DHT22;72320;50.082;20.000;2024-01-16T07:57:53;14.90;44.40
21085;DHT22;72320;50.082;20.000;2024-01-16T08:00:20;15.00;44.30
21085;DHT22;72320;50.082;20.000;2024-01-16T08:02:47;15.00;44.00
21085;DHT22;72320;50.082;20.000;2024-01-16T08:05:14;15.00;44.20
21085;DHT22;72320;50.082;20.000;2024-01-16T08:07:44;15.10;44.30
21085;DHT22;72320;50.082;20.000;2024-01-16T08:10:10;15.20;44.10
21085;DHT22;72320;50.082;20.000;2024-01-16T08:12:36;15.20;44.80
21085;DHT22;72320;50.082;20.000;2024-01-16T08:15:03;15.20;44.10
21085;DHT22;72320;50.082;20.000;2024-01-16T08:17:33;15.00;44.00
21085;DHT22;72320;50.082;20.000;2024-01-16T08:19:59;14.80;44.30
21085;DHT22;72320;50.082;20.000;2024-01-16T08:22:25;14.60;44.60
21085;DHT22;72320;50.082;20.000;2024-01-16T08:24:52;14.40;44.70
21085;DHT22;72320;50.082;20.000;2024-01-16T08:27:19;14.10;45.90
21085;DHT22;72320;50.082;20.000;2024-01-16T08:29:45;13.90;45.60
21085;DHT22;72320;50.082;20.000;2024-01-16T08:32:13;13.90;46.10
21085;DHT22;72320;50.082;20.000;2024-01-16T08:34:39;13.90;46.30
21085;DHT22;72320;50.082;20.000;2024-01-16T08:37:06;14.00;46.50
21085;DHT22;72320;50.082;20.000;2024-01-16T08:39:32;14.00;46.20
21085;DHT22;72320;50.082;20.000;2024-01-16T08:41:59;14.20;45.90
21085;DHT22;72320;50.082;20.000;2024-01-16T08:44:27;14.10;46.20
21085;DHT22;72320;50.082;20.000;2024-01-16T08:46:54;14.20;45.90
21085;DHT22;72320;50.082;20.000;2024-01-16T08:49:20;14.00;46.20
21085;DHT22;72320;50.082;20.000;2024-01-16T08:51:46;13.80;46.80
21085;DHT22;72320;50.082;20.000;2024-01-16T08:54:12;13.70;46.70
21085;DHT22;72320;50.082;20.000;2024-01-16T08:56:38;13.60;47.20
21085;DHT22;72320;50.082;20.000;2024-01-16T08:59:05;13.60;47.20
21085;DHT22;72320;50.082;20.000;2024-01-16T09:01:32;13.90;46.70
21085;DHT22;72320;50.082;20.000;2024-01-16T09:03:58;14.00;46.50
21085;DHT22;72320;50.082;20.000;2024-01-16T09:06:24;14.20;46.00
21085;DHT22;72320;50.082;20.000;2024-01-16T09:08:50;14.30;45.70
21085;DHT22;72320;50.082;20.000;2024-01-16T09:11:16;14.30;46.00
21085;DHT22;72320;50.082;20.000;2024-01-16T09:13:42;14.30;45.30
21085;DHT22;72320;50.082;20.000;2024-01-16T09:16:09;14.30;45.50
21085;DHT22;72320;50.082;20.000;2024-01-16T09:18:35;14.50;44.60
21085;DHT22;72320;50.082;20.000;2024-01-16T09:21:01;14.20;45.00
21085;DHT22;72320;50.082;20.000;2024-01-16T09:23:27;14.20;44.80
21085;DHT22;72320;50.082;20.000;2024-01-16T09:25:53;14.20;44.90
21085;DHT22;72320;50.082;20.000;2024-01-16T09:28:19;14.30;44.70
21085;DHT22;72320;50.082;20.000;2024-01-16T09:30:45;14.10;44.60
21085;DHT22;72320;50.082;20.000;2024-01-16T09:33:11;14.20;44.20
21085;DHT22;72320;50.082;20.000;2024-01-16T09:35:38;14.40;44.10
21085;DHT22;72320;50.082;20.000;2024-01-16T09:38:04;14.30;43.70
21085;DHT22;72320;50.082;20.000;2024-01-16T09:40:30;14.40;43.40
21085;DHT22;72320;50.082;20.000;2024-01-16T09:42:57;14.30;43.80
21085;DHT22;72320;50.082;20.000;2024-01-16T09:45:23;14.30;43.30
21085;DHT22;72320;50.082;20.000;2024-01-16T09:47:51;14.20;43.40
21085;DHT22;72320;50.082;20.000;2024-01-16T09:50:18;14.30;43.70
21085;DHT22;72320;50.082;20.000;2024-01-16T09:52:46;14.40;43.30
21085;DHT22;72320;50.082;20.000;2024-01-16T09:55:15;14.50;42.80
21085;DHT22;72320;50.082;20.000;2024-01-16T09:57:41;14.50;42.00
21085;DHT22;72320;50.082;20.000;2024-01-16T10:00:11;14.60;42.50
21085;DHT22;72320;50.082;20.000;2024-01-16T10:02:41;14.50;41.40
21085;DHT22;72320;50.082;20.000;2024-01-16T10:05:09;14.30;42.20
21085;DHT22;72320;50.082;20.000;2024-01-16T10:07:40;14.10;42.20
21085;DHT22;72320;50.082;20.000;2024-01-16T10:10:11;14.00;42.10
21085;DHT22;72320;50.082;20.000;2024-01-16T10:12:38;14.10;42.10
21085;DHT22;72320;50.082;20.000;2024-01-16T10:15:06;14.10;42.50
21085;DHT22;72320;50.082;20.000;2024-01-16T10:17:37;13.50;44.00
21085;DHT22;72320;50.082;20.000;2024-01-16T10:20:10;13.10;45.00
21085;DHT22;72320;50.082;20.000;2024-01-16T10:22:54;13.00;45.40
21085;DHT22;72320;50.082;20.000;2024-01-16T10:25:20;12.80;45.90
21085;DHT22;72320;50.082;20.000;2024-01-16T10:27:46;12.60;46.40
21085;DHT22;72320;50.082;20.000;2024-01-16T10:30:12;12.80;46.40
21085;DHT22;72320;50.082;20.000;2024-01-16T10:32:42;13.00;46.10
21085;DHT22;72320;50.082;20.000;2024-01-16T10:35:09;13.00;46.20
21085;DHT22;72320;50.082;20.000;2024-01-16T10:37:49;13.00;46.00
21085;DHT22;72320;50.082;20.000;2024-01-16T10:40:21;12.90;46.30
21085;DHT22;72320;50.082;20.000;2024-01-16T10:43:02;12.90;46.50
21085;DHT22;72320;50.082;20.000;2024-01-16T10:45:31;13.10;46.10
21085;DHT22;72320;50.082;20.000;2024-01-16T10:48:01;13.30;46.20
21085;DHT22;72320;50.082;20.000;2024-01-16T10:50:33;13.10;46.20
21085;DHT22;72320;50.082;20.000;2024-01-16T10:53:05;13.30;45.90
21085;DHT22;72320;50.082;20.000;2024-01-16T10:55:38;13.60;45.10
21085;DHT22;72320;50.082;20.000;2024-01-16T10:58:16;13.70;45.00
21085;DHT22;72320;50.082;20.000;2024-01-16T11:00:49;14.00;44.40
21085;DHT22;72320;50.082;20.000;2024-01-16T11:03:27;14.00;44.50
21085;DHT22;72320;50.082;20.000;2024-01-16T11:05:58;13.80;45.00
21085;DHT22;72320;50.082;20.000;2024-01-16T11:08:26;13.80;45.40
21085;DHT22;72320;50.082;20.000;2024-01-16T11:10:57;13.80;45.60
21085;DHT22;72320;50.082;20.000;2024-01-16T11:13:26;13.90;45.40
21085;DHT22;72320;50.082;20.000;2024-01-16T11:15:52;13.70;46.00
21085;DHT22;72320;50.082;20.000;2024-01-16T11:18:19;13.90;46.50
21085;DHT22;72320;50.082;20.000;2024-01-16T11:20:46;14.10;45.80
21085;DHT22;72320;50.082;20.000;2024-01-16T11:23:12;14.30;45.00
21085;DHT22;72320;50.082;20.000;2024-01-16T11:25:40;14.60;44.70
21085;DHT22;72320;50.082;20.000;2024-01-16T11:28:09;14.60;44.20
21085;DHT22;72320;50.082;20.000;2024-01-16T11:30:40;14.80;43.80
21085;DHT22;72320;50.082;20.000;2024-01-16T11:36:00;15.00;42.90
21085;DHT22;72320;50.082;20.000;2024-01-16T11:38:27;15.20;42.20
21085;DHT22;72320;50.082;20.000;2024-01-16T11:40:55;15.30;42.00
21085;DHT22;72320;50.082;20.000;2024-01-16T11:48:35;15.30;41.60
21085;DHT22;72320;50.082;20.000;2024-01-16T11:51:22;15.30;41.10
21085;DHT22;72320;50.082;20.000;2024-01-16T11:53:50;15.30;41.50
21085;DHT22;72320;50.082;20.000;2024-01-16T11:58:48;15.30;41.30
21085;DHT22;72320;50.082;20.000;2024-01-16T12:01:26;15.30;41.30
21085;DHT22;72320;50.082;20.000;2024-01-16T12:04:06;15.20;41.60
21085;DHT22;72320;50.082;20.000;2024-01-16T12:06:35;15.10;41.60
21085;DHT22;72320;50.082;20.000;2024-01-16T12:09:12;15.20;41.90
21085;DHT22;72320;50.082;20.000;2024-01-16T12:11:39;15.20;41.10
21085;DHT22;72320;50.082;20.000;2024-01-16T12:14:11;15.00;41.10
21085;DHT22;72320;50.082;20.000;2024-01-16T12:16:38;15.00;41.40
21085;DHT22;72320;50.082;20.000;2024-01-16T12:19:08;15.10;41.40
21085;DHT22;72320;50.082;20.000;2024-01-16T12:21:39;15.10;41.30
21085;DHT22;72320;50.082;20.000;2024-01-16T12:24:12;15.00;41.40
21085;DHT22;72320;50.082;20.000;2024-01-16T12:26:39;15.30;40.80
21085;DHT22;72320;50.082;20.000;2024-01-16T12:29:06;15.30;41.10
21085;DHT22;72320;50.082;20.000;2024-01-16T12:31:35;15.40;40.50
21085;DHT22;72320;50.082;20.000;2024-01-16T12:34:05;15.50;40.00
21085;DHT22;72320;50.082;20.000;2024-01-16T12:36:33;15.50;40.00
21085;DHT22;72320;50.082;20.000;2024-01-16T12:39:00;15.50;39.50
21085;DHT22;72320;50.082;20.000;2024-01-16T12:41:27;15.50;39.90
21085;DHT22;72320;50.082;20.000;2024-01-16T12:44:09;15.40;40.40
21085;DHT22;72320;50.082;20.000;2024-01-16T12:46:35;15.10;40.10
21085;DHT22;72320;50.082;20.000;2024-01-16T12:49:02;15.10;40.20
21085;DHT22;72320;50.082;20.000;2024-01-16T12:51:29;15.10;40.10
21085;DHT22;72320;50.082;20.000;2024-01-16T12:54:09;15.00;40.50
21085;DHT22;72320;50.082;20.000;2024-01-16T12:56:50;14.90;39.80
21085;DHT22;72320;50.082;20.000;2024-01-16T12:59:29;14.30;41.70
21085;DHT22;72320;50.082;20.000;2024-01-16T13:01:55;13.90;42.90
21085;DHT22;72320;50.082;20.000;2024-01-16T13:04:21;13.50;44.30
21085;DHT22;72320;50.082;20.000;2024-01-16T13:06:47;13.50;44.90
21085;DHT22;72320;50.082;20.000;2024-01-16T13:09:13;13.40;45.40
21085;DHT22;72320;50.082;20.000;2024-01-16T13:14:18;13.60;44.90
21085;DHT22;72320;50.082;20.000;2024-01-16T13:16:46;13.60;44.70
21085;DHT22;72320;50.082;20.000;2024-01-16T13:19:19;13.80;44.30
21085;DHT22;72320;50.082;20.000;2024-01-16T13:21:49;14.00;43.70
21085;DHT22;72320;50.082;20.000;2024-01-16T13:24:16;14.20;43.20
21085;DHT22;72320;50.082;20.000;2024-01-16T13:26:49;14.10;43.50
21085;DHT22;72320;50.082;20.000;2024-01-16T13:29:16;14.00;43.40
21085;DHT22;72320;50.082;20.000;2024-01-16T13:31:44;14.00;43.40
21085;DHT22;72320;50.082;20.000;2024-01-16T13:34:10;14.10;42.90
21085;DHT22;72320;50.082;20.000;2024-01-16T13:36:37;14.10;43.30
21085;DHT22;72320;50.082;20.000;2024-01-16T13:39:03;14.20;43.10
21085;DHT22;72320;50.082;20.000;2024-01-16T13:41:35;14.40;42.60
21085;DHT22;72320;50.082;20.000;2024-01-16T13:44:01;14.70;41.30
21085;DHT22;72320;50.082;20.000;2024-01-16T13:46:27;14.40;41.50
21085;DHT22;72320;50.082;20.000;2024-01-16T13:48:53;14.30;41.50
21085;DHT22;72320;50.082;20.000;2024-01-16T13:51:18;14.20;41.30
21085;DHT22;72320;50.082;20.000;2024-01-16T13:53:44;14.00;41.80
21085;DHT22;72320;50.082;20.000;2024-01-16T13:56:10;14.10;41.60
21085;DHT22;72320;50.082;20.000;2024-01-16T13:58:36;14.20;41.10
21085;DHT22;72320;50.082;20.000;2024-01-16T14:01:02;14.30;41.00
21085;DHT22;72320;50.082;20.000;2024-01-16T14:03:29;14.20;41.10
21085;DHT22;72320;50.082;20.000;2024-01-16T14:05:55;14.20;41.10
21085;DHT22;72320;50.082;20.000;2024-01-16T14:08:21;14.20;41.20
21085;DHT22;72320;50.082;20.000;2024-01-16T14:10:47;14.20;41.10
21085;DHT22;72320;50.082;20.000;2024-01-16T14:13:13;14.30;40.70
21085;DHT22;72320;50.082;20.000;2024-01-16T14:15:39;14.40;40.70
21085;DHT22;72320;50.082;20.000;2024-01-16T14:18:05;14.50;40.30
21085;DHT22;72320;50.082;20.000;2024-01-16T14:20:31;14.30;40.60
21085;DHT22;72320;50.082;20.000;2024-01-16T14:22:57;14.40;40.50
21085;DHT22;72320;50.082;20.000;2024-01-16T14:25:25;14.40;40.50
21085;DHT22;72320;50.082;20.000;2024-01-16T14:28:00;14.20;40.60
21085;DHT22;72320;50.082;20.000;2024-01-16T14:30:28;14.20;41.00
21085;DHT22;72320;50.082;20.000;2024-01-16T14:32:59;14.20;41.10
21085;DHT22;72320;50.082;20.000;2024-01-16T14:35:26;14.40;40.80
21085;DHT22;72320;50.082;20.000;2024-01-16T14:37:53;14.30;40.80
21085;DHT22;72320;50.082;20.000;2024-01-16T14:40:21;14.10;41.60
21085;DHT22;72320;50.082;20.000;2024-01-16T14:42:51;13.90;41.50
21085;DHT22;72320;50.082;20.000;2024-01-16T14:45:19;13.90;41.70
21085;DHT22;72320;50.082;20.000;2024-01-16T14:47:50;13.90;41.50
21085;DHT22;72320;50.082;20.000;2024-01-16T14:50:18;13.80;41.90
21085;DHT22;72320;50.082;20.000;2024-01-16T14:52:50;13.80;41.90
21085;DHT22;72320;50.082;20.000;2024-01-16T14:55:18;13.80;41.90
21085;DHT22;72320;50.082;20.000;2024-01-16T14:57:48;13.80;41.90
21085;DHT22;72320;50.082;20.000;2024-01-16T15:00:18;13.70;41.90
21085;DHT22;72320;50.082;20.000;2024-01-16T15:02:46;13.60;42.20
21085;DHT22;72320;50.082;20.000;2024-01-16T15:05:14;13.40;42.30
21085;DHT22;72320;50.082;20.000;2024-01-16T15:07:41;13.40;42.50
21085;DHT22;72320;50.082;20.000;2024-01-16T15:10:09;13.20;42.80
21085;DHT22;72320;50.082;20.000;2024-01-16T15:12:40;13.10;42.80
21085;DHT22;72320;50.082;20.000;2024-01-16T15:15:08;13.00;43.10
21085;DHT22;72320;50.082;20.000;2024-01-16T15:17:42;13.00;43.00
21085;DHT22;72320;50.082;20.000;2024-01-16T15:20:09;13.00;42.90
21085;DHT22;72320;50.082;20.000;2024-01-16T15:22:41;13.20;42.60
21085;DHT22;72320;50.082;20.000;2024-01-16T15:25:10;13.10;42.50
21085;DHT22;72320;50.082;20.000;2024-01-16T15:27:42;13.20;42.40
21085;DHT22;72320;50.082;20.000;2024-01-16T15:30:10;13.30;42.10